Strona główna
METAR-TAF:

METAR-TAF

Lotnisko :

Port lotniczy Akanu Ibiam

Enugu, Nigeria

Szerokość geograficzna: 06-28N, Długość geograficzna: 007-33E, wysokość: 137 m

Aktualna obserwacja pogody

Raport powstał 2 godziny i 9 minut temu, godzina 20:00 UTC
Wiatr 5 kt od północny zachód
Temperatura 26°C
Wilgotność 51%
Ciśnienie 1012 hPa
Widzialność: 5000 m
zmętnienie

METAR: DNEN 292000Z 32005KT 5000 HZ NSC 26/15 Q1012 NOSIG

czas: 23:09 (22:09 UTC)

Prognoza

Raport powstał 5 godziny i 9 minut temu, godzina 17:00 UTC
Prognoza ważna od 29 godzina 18 UTC do 30 godzina 24 UTC
Wiatr 4 kt od wschodnio-południowy wschód
Widzialność: 6000 m
Stopniowe zmiany
od 30 godzina 04 UTC do 30 godzina 06 UTC
Widzialność: 4000 m
zmętnienie

TAF: DNEN 291700Z 2918/3024 11004KT 6000 NSC BECMG 3004/3006 4000 HZ

Obserwacja i prognoza pogody dla ponad 4000 lotnisk (raport METAR i TAF).

Dostępne stacje oznaczono żółtymi i czerwonymi punktami na mapie.

Najedź kursorem aby zobaczyć nazwę stacji.

Kliknij aby zobaczyć obserwacje i prognozy pogody.

Aby zmienić mapę: kliknij na zielony przycisk z czarnym krzyżykiem, aby powiększyć; na zielony przycisk z myślnikiem, aby pomniejszyć; na zielone strzałki, aby przejść do map sąsiednich.


METAR-TAF: